sensor_id;sensor_type;location;lat;lon;timestamp;temperature;humidity
7214;DHT22;3648;50.614;13.830;2023-04-03T00:01:42;3.60;99.90
7214;DHT22;3648;50.614;13.830;2023-04-03T00:04:08;3.60;99.90
7214;DHT22;3648;50.614;13.830;2023-04-03T00:06:35;3.60;99.90
7214;DHT22;3648;50.614;13.830;2023-04-03T00:09:02;3.60;99.90
7214;DHT22;3648;50.614;13.830;2023-04-03T00:11:31;3.60;99.90
7214;DHT22;3648;50.614;13.830;2023-04-03T00:13:58;3.60;99.90
7214;DHT22;3648;50.614;13.830;2023-04-03T00:16:25;3.50;99.90
7214;DHT22;3648;50.614;13.830;2023-04-03T00:18:51;3.50;99.90
7214;DHT22;3648;50.614;13.830;2023-04-03T00:21:18;3.50;99.90
7214;DHT22;3648;50.614;13.830;2023-04-03T00:23:45;3.50;99.90
7214;DHT22;3648;50.614;13.830;2023-04-03T00:26:12;3.50;99.90
7214;DHT22;3648;50.614;13.830;2023-04-03T00:28:41;3.50;99.90
7214;DHT22;3648;50.614;13.830;2023-04-03T00:31:07;3.50;99.90
7214;DHT22;3648;50.614;13.830;2023-04-03T00:33:34;3.50;99.90
7214;DHT22;3648;50.614;13.830;2023-04-03T00:36:06;3.40;99.90
7214;DHT22;3648;50.614;13.830;2023-04-03T00:38:33;3.40;99.90
7214;DHT22;3648;50.614;13.830;2023-04-03T00:41:00;3.40;99.90
7214;DHT22;3648;50.614;13.830;2023-04-03T00:43:27;3.40;99.90
7214;DHT22;3648;50.614;13.830;2023-04-03T00:45:56;3.50;99.90
7214;DHT22;3648;50.614;13.830;2023-04-03T00:48:28;3.50;99.90
7214;DHT22;3648;50.614;13.830;2023-04-03T00:50:55;3.40;99.90
7214;DHT22;3648;50.614;13.830;2023-04-03T00:53:26;3.40;99.90
7214;DHT22;3648;50.614;13.830;2023-04-03T00:55:54;3.40;99.90
7214;DHT22;3648;50.614;13.830;2023-04-03T00:58:27;3.40;99.90
7214;DHT22;3648;50.614;13.830;2023-04-03T01:00:58;3.30;99.90
7214;DHT22;3648;50.614;13.830;2023-04-03T01:03:25;3.30;99.90
7214;DHT22;3648;50.614;13.830;2023-04-03T01:05:52;3.30;99.90
7214;DHT22;3648;50.614;13.830;2023-04-03T01:08:20;3.30;99.90
7214;DHT22;3648;50.614;13.830;2023-04-03T01:10:47;3.30;99.90
7214;DHT22;3648;50.614;13.830;2023-04-03T01:13:24;3.20;99.90
7214;DHT22;3648;50.614;13.830;2023-04-03T01:15:52;3.10;99.90
7214;DHT22;3648;50.614;13.830;2023-04-03T01:18:21;3.00;99.90
7214;DHT22;3648;50.614;13.830;2023-04-03T01:23:57;2.90;99.90
7214;DHT22;3648;50.614;13.830;2023-04-03T01:26:25;2.90;99.90
7214;DHT22;3648;50.614;13.830;2023-04-03T01:28:54;2.80;99.90
7214;DHT22;3648;50.614;13.830;2023-04-03T01:31:25;2.70;99.90
7214;DHT22;3648;50.614;13.830;2023-04-03T01:33:54;2.70;99.90
7214;DHT22;3648;50.614;13.830;2023-04-03T01:36:23;2.70;99.90
7214;DHT22;3648;50.614;13.830;2023-04-03T01:38:51;2.60;99.90
7214;DHT22;3648;50.614;13.830;2023-04-03T01:41:18;2.60;99.90
7214;DHT22;3648;50.614;13.830;2023-04-03T01:43:46;2.50;99.90
7214;DHT22;3648;50.614;13.830;2023-04-03T01:46:13;2.50;99.90
7214;DHT22;3648;50.614;13.830;2023-04-03T01:48:40;2.40;99.90
7214;DHT22;3648;50.614;13.830;2023-04-03T01:51:09;2.40;99.90
7214;DHT22;3648;50.614;13.830;2023-04-03T01:53:36;2.40;99.90
7214;DHT22;3648;50.614;13.830;2023-04-03T01:56:03;2.30;99.90
7214;DHT22;3648;50.614;13.830;2023-04-03T01:58:30;2.30;99.90
7214;DHT22;3648;50.614;13.830;2023-04-03T02:00:57;2.20;99.90
7214;DHT22;3648;50.614;13.830;2023-04-03T02:03:24;2.20;99.90
7214;DHT22;3648;50.614;13.830;2023-04-03T02:05:52;2.20;99.90
7214;DHT22;3648;50.614;13.830;2023-04-03T02:08:20;2.10;99.90
7214;DHT22;3648;50.614;13.830;2023-04-03T02:10:48;2.00;99.90
7214;DHT22;3648;50.614;13.830;2023-04-03T02:13:15;1.90;99.90
7214;DHT22;3648;50.614;13.830;2023-04-03T02:15:42;1.90;99.90
7214;DHT22;3648;50.614;13.830;2023-04-03T02:18:09;1.90;99.90
7214;DHT22;3648;50.614;13.830;2023-04-03T02:20:36;1.80;99.90
7214;DHT22;3648;50.614;13.830;2023-04-03T02:23:04;1.80;99.90
7214;DHT22;3648;50.614;13.830;2023-04-03T02:25:33;1.70;99.90
7214;DHT22;3648;50.614;13.830;2023-04-03T02:28:00;1.60;99.90
7214;DHT22;3648;50.614;13.830;2023-04-03T02:30:27;1.50;99.90
7214;DHT22;3648;50.614;13.830;2023-04-03T02:32:54;1.50;99.90
7214;DHT22;3648;50.614;13.830;2023-04-03T02:35:21;1.40;99.90
7214;DHT22;3648;50.614;13.830;2023-04-03T02:37:48;1.30;99.90
7214;DHT22;3648;50.614;13.830;2023-04-03T02:40:15;1.30;99.90
7214;DHT22;3648;50.614;13.830;2023-04-03T02:42:43;1.30;99.90
7214;DHT22;3648;50.614;13.830;2023-04-03T02:45:10;1.20;99.90
7214;DHT22;3648;50.614;13.830;2023-04-03T02:47:37;1.20;99.90
7214;DHT22;3648;50.614;13.830;2023-04-03T02:50:05;1.20;99.90
7214;DHT22;3648;50.614;13.830;2023-04-03T02:52:32;1.10;99.90
7214;DHT22;3648;50.614;13.830;2023-04-03T02:54:58;1.00;99.90
7214;DHT22;3648;50.614;13.830;2023-04-03T02:57:25;1.00;99.90
7214;DHT22;3648;50.614;13.830;2023-04-03T02:59:54;1.00;99.90
7214;DHT22;3648;50.614;13.830;2023-04-03T03:02:21;1.00;99.90
7214;DHT22;3648;50.614;13.830;2023-04-03T03:04:47;0.90;99.90
7214;DHT22;3648;50.614;13.830;2023-04-03T03:07:14;0.90;99.90
7214;DHT22;3648;50.614;13.830;2023-04-03T03:09:41;0.80;99.90
7214;DHT22;3648;50.614;13.830;2023-04-03T03:12:08;0.80;99.90
7214;DHT22;3648;50.614;13.830;2023-04-03T03:14:35;0.70;99.90
7214;DHT22;3648;50.614;13.830;2023-04-03T03:17:03;0.60;99.90
7214;DHT22;3648;50.614;13.830;2023-04-03T03:19:30;0.60;99.90
7214;DHT22;3648;50.614;13.830;2023-04-03T03:21:57;0.60;99.90
7214;DHT22;3648;50.614;13.830;2023-04-03T03:24:24;0.60;99.90
7214;DHT22;3648;50.614;13.830;2023-04-03T03:26:51;0.50;99.90
7214;DHT22;3648;50.614;13.830;2023-04-03T03:29:18;0.50;99.90
7214;DHT22;3648;50.614;13.830;2023-04-03T03:31:45;0.40;99.90
7214;DHT22;3648;50.614;13.830;2023-04-03T03:34:14;0.40;99.90
7214;DHT22;3648;50.614;13.830;2023-04-03T03:36:41;0.40;99.90
7214;DHT22;3648;50.614;13.830;2023-04-03T03:39:08;0.40;99.90
7214;DHT22;3648;50.614;13.830;2023-04-03T03:41:35;0.40;99.90
7214;DHT22;3648;50.614;13.830;2023-04-03T03:44:01;0.40;99.90
7214;DHT22;3648;50.614;13.830;2023-04-03T03:46:28;0.30;99.90
7214;DHT22;3648;50.614;13.830;2023-04-03T03:48:55;0.40;99.90
7214;DHT22;3648;50.614;13.830;2023-04-03T03:51:23;0.30;99.90
7214;DHT22;3648;50.614;13.830;2023-04-03T03:53:50;0.30;99.90
7214;DHT22;3648;50.614;13.830;2023-04-03T03:56:17;0.30;99.90
7214;DHT22;3648;50.614;13.830;2023-04-03T03:58:45;0.20;99.90
7214;DHT22;3648;50.614;13.830;2023-04-03T04:01:12;0.30;99.90
7214;DHT22;3648;50.614;13.830;2023-04-03T04:03:40;0.30;99.90
7214;DHT22;3648;50.614;13.830;2023-04-03T04:06:07;0.30;99.90
7214;DHT22;3648;50.614;13.830;2023-04-03T04:08:36;0.30;99.90
7214;DHT22;3648;50.614;13.830;2023-04-03T04:11:03;0.30;99.90
7214;DHT22;3648;50.614;13.830;2023-04-03T04:13:30;0.30;99.90
7214;DHT22;3648;50.614;13.830;2023-04-03T04:15:57;0.30;99.90
7214;DHT22;3648;50.614;13.830;2023-04-03T04:18:24;0.30;99.90
7214;DHT22;3648;50.614;13.830;2023-04-03T04:20:51;0.30;99.90
7214;DHT22;3648;50.614;13.830;2023-04-03T04:23:18;0.30;99.90
7214;DHT22;3648;50.614;13.830;2023-04-03T04:25:47;0.30;99.90
7214;DHT22;3648;50.614;13.830;2023-04-03T04:28:15;0.30;99.90
7214;DHT22;3648;50.614;13.830;2023-04-03T04:30:42;0.30;99.90
7214;DHT22;3648;50.614;13.830;2023-04-03T04:33:09;0.30;99.90
7214;DHT22;3648;50.614;13.830;2023-04-03T04:35:37;0.30;99.90
7214;DHT22;3648;50.614;13.830;2023-04-03T04:38:04;0.30;99.90
7214;DHT22;3648;50.614;13.830;2023-04-03T04:40:34;0.20;99.90
7214;DHT22;3648;50.614;13.830;2023-04-03T04:43:02;0.30;99.90
7214;DHT22;3648;50.614;13.830;2023-04-03T04:45:30;0.30;99.90
7214;DHT22;3648;50.614;13.830;2023-04-03T04:47:58;0.30;99.90
7214;DHT22;3648;50.614;13.830;2023-04-03T04:50:25;0.30;99.90
7214;DHT22;3648;50.614;13.830;2023-04-03T04:52:52;0.20;99.90
7214;DHT22;3648;50.614;13.830;2023-04-03T04:55:20;0.20;99.90
7214;DHT22;3648;50.614;13.830;2023-04-03T04:57:47;0.30;99.90
7214;DHT22;3648;50.614;13.830;2023-04-03T05:00:17;0.30;99.90
7214;DHT22;3648;50.614;13.830;2023-04-03T05:02:45;0.30;99.90
7214;DHT22;3648;50.614;13.830;2023-04-03T05:05:12;0.30;99.90
7214;DHT22;3648;50.614;13.830;2023-04-03T05:07:39;0.30;99.90
7214;DHT22;3648;50.614;13.830;2023-04-03T05:10:08;0.20;99.90
7214;DHT22;3648;50.614;13.830;2023-04-03T05:12:35;0.10;99.90
7214;DHT22;3648;50.614;13.830;2023-04-03T05:15:03;0.10;99.90
7214;DHT22;3648;50.614;13.830;2023-04-03T05:17:32;0.10;99.90
7214;DHT22;3648;50.614;13.830;2023-04-03T05:19:59;0.10;99.90
7214;DHT22;3648;50.614;13.830;2023-04-03T05:22:26;0.10;99.90
7214;DHT22;3648;50.614;13.830;2023-04-03T05:24:53;0.10;99.90
7214;DHT22;3648;50.614;13.830;2023-04-03T05:27:20;0.10;99.90
7214;DHT22;3648;50.614;13.830;2023-04-03T05:29:49;0.00;99.90
7214;DHT22;3648;50.614;13.830;2023-04-03T05:32:16;0.00;99.90
7214;DHT22;3648;50.614;13.830;2023-04-03T05:34:44;0.00;99.90
7214;DHT22;3648;50.614;13.830;2023-04-03T05:37:11;0.10;99.90
7214;DHT22;3648;50.614;13.830;2023-04-03T05:39:38;0.10;99.90
7214;DHT22;3648;50.614;13.830;2023-04-03T05:42:06;0.10;99.90
7214;DHT22;3648;50.614;13.830;2023-04-03T05:44:33;0.10;99.90
7214;DHT22;3648;50.614;13.830;2023-04-03T05:47:00;0.10;99.90
7214;DHT22;3648;50.614;13.830;2023-04-03T05:49:27;0.10;99.90
7214;DHT22;3648;50.614;13.830;2023-04-03T05:51:55;0.10;99.90
7214;DHT22;3648;50.614;13.830;2023-04-03T05:54:24;0.10;99.90
7214;DHT22;3648;50.614;13.830;2023-04-03T05:56:52;0.20;99.90
7214;DHT22;3648;50.614;13.830;2023-04-03T05:59:19;0.20;99.90
7214;DHT22;3648;50.614;13.830;2023-04-03T06:01:47;0.30;99.90
7214;DHT22;3648;50.614;13.830;2023-04-03T06:04:14;0.40;99.90
7214;DHT22;3648;50.614;13.830;2023-04-03T06:06:49;0.40;99.90
7214;DHT22;3648;50.614;13.830;2023-04-03T06:09:19;0.50;99.90
7214;DHT22;3648;50.614;13.830;2023-04-03T06:11:46;0.50;99.90
7214;DHT22;3648;50.614;13.830;2023-04-03T06:14:13;0.60;99.90
7214;DHT22;3648;50.614;13.830;2023-04-03T06:16:40;0.60;99.90
7214;DHT22;3648;50.614;13.830;2023-04-03T06:19:08;0.80;99.90
7214;DHT22;3648;50.614;13.830;2023-04-03T06:21:35;0.80;99.90
7214;DHT22;3648;50.614;13.830;2023-04-03T06:24:02;0.90;99.90
7214;DHT22;3648;50.614;13.830;2023-04-03T06:26:31;0.90;99.90
7214;DHT22;3648;50.614;13.830;2023-04-03T06:28:59;1.00;99.90
7214;DHT22;3648;50.614;13.830;2023-04-03T06:31:27;1.00;99.90
7214;DHT22;3648;50.614;13.830;2023-04-03T06:33:54;1.10;99.90
7214;DHT22;3648;50.614;13.830;2023-04-03T06:36:22;1.10;99.90
7214;DHT22;3648;50.614;13.830;2023-04-03T06:38:49;1.20;99.90
7214;DHT22;3648;50.614;13.830;2023-04-03T06:41:16;1.20;99.90
7214;DHT22;3648;50.614;13.830;2023-04-03T06:43:45;1.20;99.90
7214;DHT22;3648;50.614;13.830;2023-04-03T06:46:15;1.20;99.90
7214;DHT22;3648;50.614;13.830;2023-04-03T06:48:43;1.20;99.90
7214;DHT22;3648;50.614;13.830;2023-04-03T06:51:17;1.20;99.90
7214;DHT22;3648;50.614;13.830;2023-04-03T06:53:45;1.10;99.90
7214;DHT22;3648;50.614;13.830;2023-04-03T06:56:12;1.10;99.90
7214;DHT22;3648;50.614;13.830;2023-04-03T06:58:39;1.10;99.90
7214;DHT22;3648;50.614;13.830;2023-04-03T07:01:08;1.10;99.90
7214;DHT22;3648;50.614;13.830;2023-04-03T07:03:36;1.10;99.90
7214;DHT22;3648;50.614;13.830;2023-04-03T07:06:04;1.20;99.90
7214;DHT22;3648;50.614;13.830;2023-04-03T07:08:31;1.30;99.90
7214;DHT22;3648;50.614;13.830;2023-04-03T07:10:58;1.40;99.90
7214;DHT22;3648;50.614;13.830;2023-04-03T07:13:26;1.60;99.90
7214;DHT22;3648;50.614;13.830;2023-04-03T07:15:53;1.80;99.90
7214;DHT22;3648;50.614;13.830;2023-04-03T07:18:21;2.00;99.90
7214;DHT22;3648;50.614;13.830;2023-04-03T07:20:48;2.10;99.90
7214;DHT22;3648;50.614;13.830;2023-04-03T07:23:15;2.30;99.90
7214;DHT22;3648;50.614;13.830;2023-04-03T07:25:43;2.40;99.90
7214;DHT22;3648;50.614;13.830;2023-04-03T07:28:11;2.60;99.90
7214;DHT22;3648;50.614;13.830;2023-04-03T07:30:43;2.70;99.90
7214;DHT22;3648;50.614;13.830;2023-04-03T07:33:10;2.80;99.90
7214;DHT22;3648;50.614;13.830;2023-04-03T07:35:39;2.80;99.90
7214;DHT22;3648;50.614;13.830;2023-04-03T07:38:06;2.90;99.90
7214;DHT22;3648;50.614;13.830;2023-04-03T07:40:33;3.00;99.90
7214;DHT22;3648;50.614;13.830;2023-04-03T07:43:01;3.20;99.90
7214;DHT22;3648;50.614;13.830;2023-04-03T07:45:28;3.30;99.90
7214;DHT22;3648;50.614;13.830;2023-04-03T07:47:55;3.50;99.90
7214;DHT22;3648;50.614;13.830;2023-04-03T07:50:22;3.70;99.90
7214;DHT22;3648;50.614;13.830;2023-04-03T07:52:51;4.00;99.90
7214;DHT22;3648;50.614;13.830;2023-04-03T07:55:20;4.30;99.90
7214;DHT22;3648;50.614;13.830;2023-04-03T07:57:47;4.30;99.90
7214;DHT22;3648;50.614;13.830;2023-04-03T08:00:14;4.60;99.90
7214;DHT22;3648;50.614;13.830;2023-04-03T08:02:43;4.70;99.90
7214;DHT22;3648;50.614;13.830;2023-04-03T08:05:15;4.80;99.90
7214;DHT22;3648;50.614;13.830;2023-04-03T08:07:42;4.60;99.90
7214;DHT22;3648;50.614;13.830;2023-04-03T08:10:11;4.90;99.90
7214;DHT22;3648;50.614;13.830;2023-04-03T08:12:38;5.20;99.90
7214;DHT22;3648;50.614;13.830;2023-04-03T08:15:05;5.50;99.90
7214;DHT22;3648;50.614;13.830;2023-04-03T08:17:32;5.90;99.90
7214;DHT22;3648;50.614;13.830;2023-04-03T08:20:00;6.10;99.90
7214;DHT22;3648;50.614;13.830;2023-04-03T08:22:27;6.40;99.90
7214;DHT22;3648;50.614;13.830;2023-04-03T08:24:54;6.40;99.90
7214;DHT22;3648;50.614;13.830;2023-04-03T08:27:22;6.10;99.90
7214;DHT22;3648;50.614;13.830;2023-04-03T08:29:49;5.90;99.90
7214;DHT22;3648;50.614;13.830;2023-04-03T08:32:16;5.80;99.90
7214;DHT22;3648;50.614;13.830;2023-04-03T08:34:44;6.00;99.90
7214;DHT22;3648;50.614;13.830;2023-04-03T08:37:12;6.10;99.90
7214;DHT22;3648;50.614;13.830;2023-04-03T08:39:38;5.90;99.90
7214;DHT22;3648;50.614;13.830;2023-04-03T08:42:14;5.90;99.90
7214;DHT22;3648;50.614;13.830;2023-04-03T08:44:46;5.40;99.90
7214;DHT22;3648;50.614;13.830;2023-04-03T08:47:22;5.10;99.90
7214;DHT22;3648;50.614;13.830;2023-04-03T08:49:53;5.10;99.90
7214;DHT22;3648;50.614;13.830;2023-04-03T08:52:28;5.10;99.90
7214;DHT22;3648;50.614;13.830;2023-04-03T08:55:00;5.00;99.90
7214;DHT22;3648;50.614;13.830;2023-04-03T08:57:30;5.00;99.90
7214;DHT22;3648;50.614;13.830;2023-04-03T09:00:01;5.10;99.90
7214;DHT22;3648;50.614;13.830;2023-04-03T09:02:34;5.00;99.90
7214;DHT22;3648;50.614;13.830;2023-04-03T09:05:05;4.80;99.90
7214;DHT22;3648;50.614;13.830;2023-04-03T09:07:37;4.90;99.90
7214;DHT22;3648;50.614;13.830;2023-04-03T09:10:07;4.90;99.90
7214;DHT22;3648;50.614;13.830;2023-04-03T09:12:38;5.20;99.90
7214;DHT22;3648;50.614;13.830;2023-04-03T09:15:17;5.60;99.90
7214;DHT22;3648;50.614;13.830;2023-04-03T09:17:53;5.50;99.90
7214;DHT22;3648;50.614;13.830;2023-04-03T09:20:29;5.50;99.90
7214;DHT22;3648;50.614;13.830;2023-04-03T09:22:58;5.50;99.90
7214;DHT22;3648;50.614;13.830;2023-04-03T09:25:27;5.10;99.90
7214;DHT22;3648;50.614;13.830;2023-04-03T09:27:54;4.90;99.90
7214;DHT22;3648;50.614;13.830;2023-04-03T09:30:24;4.90;99.90
7214;DHT22;3648;50.614;13.830;2023-04-03T09:32:53;4.70;99.90
7214;DHT22;3648;50.614;13.830;2023-04-03T09:35:24;4.60;99.90
7214;DHT22;3648;50.614;13.830;2023-04-03T09:37:52;4.40;99.90
7214;DHT22;3648;50.614;13.830;2023-04-03T09:40:37;4.40;99.90
7214;DHT22;3648;50.614;13.830;2023-04-03T09:43:23;4.40;99.90
7214;DHT22;3648;50.614;13.830;2023-04-03T09:45:53;4.70;99.90
7214;DHT22;3648;50.614;13.830;2023-04-03T09:48:23;4.70;99.90
7214;DHT22;3648;50.614;13.830;2023-04-03T09:50:56;4.70;99.90
7214;DHT22;3648;50.614;13.830;2023-04-03T09:53:31;4.60;99.90
7214;DHT22;3648;50.614;13.830;2023-04-03T09:55:59;4.80;99.90
7214;DHT22;3648;50.614;13.830;2023-04-03T09:58:28;4.90;99.90
7214;DHT22;3648;50.614;13.830;2023-04-03T10:00:59;4.80;99.90
7214;DHT22;3648;50.614;13.830;2023-04-03T10:03:29;4.80;99.90
7214;DHT22;3648;50.614;13.830;2023-04-03T10:05:58;4.80;99.90
7214;DHT22;3648;50.614;13.830;2023-04-03T10:08:27;4.70;99.90
7214;DHT22;3648;50.614;13.830;2023-04-03T10:11:13;4.90;99.90
7214;DHT22;3648;50.614;13.830;2023-04-03T10:13:52;5.20;99.90
7214;DHT22;3648;50.614;13.830;2023-04-03T10:16:25;5.40;99.90
7214;DHT22;3648;50.614;13.830;2023-04-03T10:19:14;5.50;99.90
7214;DHT22;3648;50.614;13.830;2023-04-03T10:21:49;5.70;99.90
7214;DHT22;3648;50.614;13.830;2023-04-03T10:24:23;5.70;99.90
7214;DHT22;3648;50.614;13.830;2023-04-03T10:26:58;5.60;99.90
7214;DHT22;3648;50.614;13.830;2023-04-03T10:29:42;5.90;99.90
7214;DHT22;3648;50.614;13.830;2023-04-03T10:32:36;6.10;99.90
7214;DHT22;3648;50.614;13.830;2023-04-03T10:35:12;6.20;99.90
7214;DHT22;3648;50.614;13.830;2023-04-03T10:37:52;6.20;99.90
7214;DHT22;3648;50.614;13.830;2023-04-03T10:40:29;5.80;99.90
7214;DHT22;3648;50.614;13.830;2023-04-03T10:43:04;6.00;99.90
7214;DHT22;3648;50.614;13.830;2023-04-03T10:45:46;5.80;99.90
7214;DHT22;3648;50.614;13.830;2023-04-03T10:48:21;5.50;99.90
7214;DHT22;3648;50.614;13.830;2023-04-03T10:50:57;5.50;99.90
7214;DHT22;3648;50.614;13.830;2023-04-03T10:53:31;5.50;99.90
7214;DHT22;3648;50.614;13.830;2023-04-03T10:56:05;5.40;99.90
7214;DHT22;3648;50.614;13.830;2023-04-03T10:58:36;5.30;99.90
7214;DHT22;3648;50.614;13.830;2023-04-03T11:01:08;5.40;99.90
7214;DHT22;3648;50.614;13.830;2023-04-03T11:03:41;5.40;99.90
7214;DHT22;3648;50.614;13.830;2023-04-03T11:06:14;5.30;99.90
7214;DHT22;3648;50.614;13.830;2023-04-03T11:08:45;5.20;99.90
7214;DHT22;3648;50.614;13.830;2023-04-03T11:11:16;5.10;99.90
7214;DHT22;3648;50.614;13.830;2023-04-03T11:13:49;5.10;99.90
7214;DHT22;3648;50.614;13.830;2023-04-03T11:16:22;5.10;99.90
7214;DHT22;3648;50.614;13.830;2023-04-03T11:18:54;5.10;99.90
7214;DHT22;3648;50.614;13.830;2023-04-03T11:21:28;5.10;99.90
7214;DHT22;3648;50.614;13.830;2023-04-03T11:23:57;5.10;99.90
7214;DHT22;3648;50.614;13.830;2023-04-03T11:26:29;5.10;99.90
7214;DHT22;3648;50.614;13.830;2023-04-03T11:29:00;5.00;99.90
7214;DHT22;3648;50.614;13.830;2023-04-03T11:31:46;5.00;99.90
7214;DHT22;3648;50.614;13.830;2023-04-03T11:34:27;5.00;99.90
7214;DHT22;3648;50.614;13.830;2023-04-03T11:37:01;5.10;99.90
7214;DHT22;3648;50.614;13.830;2023-04-03T11:39:32;5.10;99.90
7214;DHT22;3648;50.614;13.830;2023-04-03T11:42:14;5.20;99.90
7214;DHT22;3648;50.614;13.830;2023-04-03T11:44:42;5.20;99.90
7214;DHT22;3648;50.614;13.830;2023-04-03T11:47:10;5.20;99.90
7214;DHT22;3648;50.614;13.830;2023-04-03T11:49:56;5.20;99.90
7214;DHT22;3648;50.614;13.830;2023-04-03T11:52:59;5.10;99.90
7214;DHT22;3648;50.614;13.830;2023-04-03T11:55:54;5.10;99.90
7214;DHT22;3648;50.614;13.830;2023-04-03T11:58:23;5.10;99.90
7214;DHT22;3648;50.614;13.830;2023-04-03T12:00:53;5.20;99.90
7214;DHT22;3648;50.614;13.830;2023-04-03T12:07:02;5.50;99.90
7214;DHT22;3648;50.614;13.830;2023-04-03T12:10:13;5.50;99.90
7214;DHT22;3648;50.614;13.830;2023-04-03T12:12:42;5.50;99.90
7214;DHT22;3648;50.614;13.830;2023-04-03T12:18:41;5.50;99.90
7214;DHT22;3648;50.614;13.830;2023-04-03T12:21:09;5.60;99.90
7214;DHT22;3648;50.614;13.830;2023-04-03T12:23:57;5.70;99.90
7214;DHT22;3648;50.614;13.830;2023-04-03T12:26:27;5.80;99.90
7214;DHT22;3648;50.614;13.830;2023-04-03T12:28:55;5.80;99.90
7214;DHT22;3648;50.614;13.830;2023-04-03T12:31:25;5.80;99.90
7214;DHT22;3648;50.614;13.830;2023-04-03T12:34:12;5.70;99.90
7214;DHT22;3648;50.614;13.830;2023-04-03T12:36:49;5.90;99.90
7214;DHT22;3648;50.614;13.830;2023-04-03T12:39:49;5.90;99.90
7214;DHT22;3648;50.614;13.830;2023-04-03T12:42:40;6.10;99.90
7214;DHT22;3648;50.614;13.830;2023-04-03T12:45:16;6.30;99.90
7214;DHT22;3648;50.614;13.830;2023-04-03T12:47:45;6.30;99.90
7214;DHT22;3648;50.614;13.830;2023-04-03T12:50:22;6.10;99.90
7214;DHT22;3648;50.614;13.830;2023-04-03T12:52:54;6.00;99.90
7214;DHT22;3648;50.614;13.830;2023-04-03T12:55:24;5.90;99.90
7214;DHT22;3648;50.614;13.830;2023-04-03T12:57:52;5.60;99.90
7214;DHT22;3648;50.614;13.830;2023-04-03T13:00:22;5.50;99.90
7214;DHT22;3648;50.614;13.830;2023-04-03T13:02:53;5.30;99.90
7214;DHT22;3648;50.614;13.830;2023-04-03T13:05:22;5.30;99.90
7214;DHT22;3648;50.614;13.830;2023-04-03T13:07:53;5.20;99.90
7214;DHT22;3648;50.614;13.830;2023-04-03T13:10:24;5.20;99.90
7214;DHT22;3648;50.614;13.830;2023-04-03T13:12:52;5.10;99.90
7214;DHT22;3648;50.614;13.830;2023-04-03T13:15:22;5.20;99.90
7214;DHT22;3648;50.614;13.830;2023-04-03T13:17:52;5.30;99.90
7214;DHT22;3648;50.614;13.830;2023-04-03T13:20:28;5.40;99.90
7214;DHT22;3648;50.614;13.830;2023-04-03T13:23:01;5.50;99.90
7214;DHT22;3648;50.614;13.830;2023-04-03T13:25:32;5.50;99.90
7214;DHT22;3648;50.614;13.830;2023-04-03T13:28:01;5.50;99.90
7214;DHT22;3648;50.614;13.830;2023-04-03T13:30:30;5.40;99.90
7214;DHT22;3648;50.614;13.830;2023-04-03T13:33:00;5.20;99.90
7214;DHT22;3648;50.614;13.830;2023-04-03T13:35:31;5.00;99.90
7214;DHT22;3648;50.614;13.830;2023-04-03T13:38:00;5.00;99.90
7214;DHT22;3648;50.614;13.830;2023-04-03T13:40:28;4.90;99.90
7214;DHT22;3648;50.614;13.830;2023-04-03T13:43:02;4.90;99.90
7214;DHT22;3648;50.614;13.830;2023-04-03T13:45:30;4.90;99.90
7214;DHT22;3648;50.614;13.830;2023-04-03T13:48:10;5.00;99.90
7214;DHT22;3648;50.614;13.830;2023-04-03T13:50:53;5.10;99.90
7214;DHT22;3648;50.614;13.830;2023-04-03T13:53:21;5.20;99.90
7214;DHT22;3648;50.614;13.830;2023-04-03T13:55:59;5.40;99.90
7214;DHT22;3648;50.614;13.830;2023-04-03T13:58:28;5.60;99.90
7214;DHT22;3648;50.614;13.830;2023-04-03T14:01:00;5.60;99.90
7214;DHT22;3648;50.614;13.830;2023-04-03T14:03:30;5.60;99.90
7214;DHT22;3648;50.614;13.830;2023-04-03T14:05:57;5.60;99.90
7214;DHT22;3648;50.614;13.830;2023-04-03T14:08:25;5.60;99.90
7214;DHT22;3648;50.614;13.830;2023-04-03T14:10:53;5.50;99.90
7214;DHT22;3648;50.614;13.830;2023-04-03T14:13:20;5.40;99.90
7214;DHT22;3648;50.614;13.830;2023-04-03T14:15:49;5.30;99.90
7214;DHT22;3648;50.614;13.830;2023-04-03T14:18:19;5.20;99.90
7214;DHT22;3648;50.614;13.830;2023-04-03T14:20:46;5.20;99.90
7214;DHT22;3648;50.614;13.830;2023-04-03T14:23:14;5.20;99.90
7214;DHT22;3648;50.614;13.830;2023-04-03T14:25:42;5.20;99.90
7214;DHT22;3648;50.614;13.830;2023-04-03T14:28:16;5.20;99.90
7214;DHT22;3648;50.614;13.830;2023-04-03T14:30:44;5.10;99.90
7214;DHT22;3648;50.614;13.830;2023-04-03T14:33:17;5.10;99.90
7214;DHT22;3648;50.614;13.830;2023-04-03T14:35:45;5.20;99.90
7214;DHT22;3648;50.614;13.830;2023-04-03T14:38:22;5.10;99.90
7214;DHT22;3648;50.614;13.830;2023-04-03T14:40:50;5.20;99.90
7214;DHT22;3648;50.614;13.830;2023-04-03T14:43:18;5.20;99.90
7214;DHT22;3648;50.614;13.830;2023-04-03T14:45:45;5.10;99.90
7214;DHT22;3648;50.614;13.830;2023-04-03T14:48:19;5.10;99.90
7214;DHT22;3648;50.614;13.830;2023-04-03T14:50:47;5.10;99.90
7214;DHT22;3648;50.614;13.830;2023-04-03T14:53:15;5.00;99.90
7214;DHT22;3648;50.614;13.830;2023-04-03T14:55:43;4.90;99.90
7214;DHT22;3648;50.614;13.830;2023-04-03T14:58:13;4.80;99.90
7214;DHT22;3648;50.614;13.830;2023-04-03T15:00:41;4.70;99.90
7214;DHT22;3648;50.614;13.830;2023-04-03T15:03:13;4.50;99.90
7214;DHT22;3648;50.614;13.830;2023-04-03T15:05:42;4.40;99.90
7214;DHT22;3648;50.614;13.830;2023-04-03T15:08:18;4.40;99.90
7214;DHT22;3648;50.614;13.830;2023-04-03T15:10:46;4.30;99.90
7214;DHT22;3648;50.614;13.830;2023-04-03T15:13:14;4.40;99.90
7214;DHT22;3648;50.614;13.830;2023-04-03T15:15:42;4.40;99.90
7214;DHT22;3648;50.614;13.830;2023-04-03T15:18:14;4.40;99.90
7214;DHT22;3648;50.614;13.830;2023-04-03T15:20:43;4.50;99.90
7214;DHT22;3648;50.614;13.830;2023-04-03T15:23:12;4.50;99.90
7214;DHT22;3648;50.614;13.830;2023-04-03T15:25:41;4.50;99.90
7214;DHT22;3648;50.614;13.830;2023-04-03T15:28:15;4.50;99.90
7214;DHT22;3648;50.614;13.830;2023-04-03T15:30:45;4.60;99.90
7214;DHT22;3648;50.614;13.830;2023-04-03T15:33:13;4.50;99.90
7214;DHT22;3648;50.614;13.830;2023-04-03T15:35:42;4.40;99.90
7214;DHT22;3648;50.614;13.830;2023-04-03T15:38:09;4.40;99.90
7214;DHT22;3648;50.614;13.830;2023-04-03T15:40:37;4.20;99.90
7214;DHT22;3648;50.614;13.830;2023-04-03T15:43:05;4.20;99.90
7214;DHT22;3648;50.614;13.830;2023-04-03T15:45:34;4.10;99.90
7214;DHT22;3648;50.614;13.830;2023-04-03T15:48:02;4.20;99.90
7214;DHT22;3648;50.614;13.830;2023-04-03T15:50:30;4.20;99.90
7214;DHT22;3648;50.614;13.830;2023-04-03T15:52:59;4.40;99.90
7214;DHT22;3648;50.614;13.830;2023-04-03T15:55:29;4.40;99.90
7214;DHT22;3648;50.614;13.830;2023-04-03T15:57:56;4.40;99.90
7214;DHT22;3648;50.614;13.830;2023-04-03T16:00:25;4.50;99.90
7214;DHT22;3648;50.614;13.830;2023-04-03T16:02:55;4.50;99.90
7214;DHT22;3648;50.614;13.830;2023-04-03T16:05:24;4.30;99.90
7214;DHT22;3648;50.614;13.830;2023-04-03T16:07:51;4.20;99.90
7214;DHT22;3648;50.614;13.830;2023-04-03T16:10:21;4.10;99.90
7214;DHT22;3648;50.614;13.830;2023-04-03T16:12:48;4.00;99.90
7214;DHT22;3648;50.614;13.830;2023-04-03T16:15:16;4.00;99.90
7214;DHT22;3648;50.614;13.830;2023-04-03T16:17:43;3.90;99.90
7214;DHT22;3648;50.614;13.830;2023-04-03T16:20:13;3.90;99.90
7214;DHT22;3648;50.614;13.830;2023-04-03T16:22:41;3.90;99.90
7214;DHT22;3648;50.614;13.830;2023-04-03T16:25:09;3.80;99.90
7214;DHT22;3648;50.614;13.830;2023-04-03T16:27:39;3.70;99.90
7214;DHT22;3648;50.614;13.830;2023-04-03T16:30:08;3.70;99.90